What's New & What's Coming
What BayLakers Should Know, Weather, FB & BLIA
Your Pictures
BayLakers on the Water & Young Anglers
Zebra Mussels & EWM
Environmental & History
Postings From Past Years
HOME ::
 

 


Live Image updated every minute!
This page will automatically reload every hour.

KAIT - Aitkin Airport, Aitkin, Minnesota
Updated: Wed, 17-Oct-2018 12:35am CDT
Overcast
Overcast
 Wind from W
Wind: W 6 mph , 9 km/h
Temperature: 34°F , 1°C
Wind Chill: 29°F , -2°C
Dew Point: 25°F , -4°C
Humidity: 70%
Barometer: 30.13 inHg , 1020.3 hPa
Clouds: Overcast
Visibility: 10 miles , 16 km
Cloud details: Overcast 5000 ft
2018/10/17 05:35 KAIT 170535Z AUTO 28005KT 10SM OVC050 01/M04 A3013 RMK AO2
KBRD - Brainerd Airport, Brainerd, Minnesota
Updated: Tue, 16-Oct-2018 10:53pm CDT
NOT Current
Overcast
Overcast
 Wind from NW
Wind: NW 12 mph , 19 km/h
Temperature: 37°F , 3°C
Wind Chill: 29°F , -2°C
Dew Point: 23°F , -5°C
Humidity: 56%
Barometer: 30.15 inHg , 1021 hPa
Clouds: Overcast
Visibility: 10 miles , 16 km
Cloud details: Overcast 4100 ft
2018/10/17 03:53 KBRD 170353Z AUTO 32010KT 10SM OVC041 03/M05 A3015 RMK AO2 SLP222 T00281050

Metar display script from Saratoga-Weather.org

 

Live air traffic over Bay Lake

 

Locations of visitors to this page